createdAt,value
2022-08-18T00:00:12.343Z,12.69
2022-08-18T00:01:07.697Z,13.19
2022-08-18T00:03:20.714Z,14.10
2022-08-18T00:04:21.747Z,13
2022-08-18T00:06:07.633Z,12.30
2022-08-18T00:07:07.143Z,12.60
2022-08-18T00:08:07.677Z,12.10
2022-08-18T00:09:07.368Z,15.89
2022-08-18T00:10:07.699Z,16.5
2022-08-18T00:11:07.213Z,13.89
2022-08-18T00:12:07.459Z,14.5
2022-08-18T00:13:06.880Z,13.89
2022-08-18T00:14:07.261Z,11.80
2022-08-18T00:15:07.799Z,13.19
2022-08-18T00:16:07.268Z,12.89
2022-08-18T00:17:07.628Z,14.60
2022-08-18T00:18:07.022Z,14.80
2022-08-18T00:19:09.415Z,15.5
2022-08-18T00:20:07.615Z,14.89
2022-08-18T00:21:07.049Z,14.69
2022-08-18T00:22:07.051Z,15.10
2022-08-18T00:23:07.097Z,14.5
2022-08-18T00:24:06.981Z,13.5
2022-08-18T00:25:07.278Z,13.80
2022-08-18T00:26:07.320Z,12.39
2022-08-18T00:27:07.528Z,13.19
2022-08-18T00:28:07.354Z,13.89
2022-08-18T00:29:07.248Z,12
2022-08-18T00:30:07.484Z,13.60
2022-08-18T00:31:06.929Z,12.89
2022-08-18T00:32:07.421Z,14
2022-08-18T00:33:06.947Z,12.30
2022-08-18T00:34:07.048Z,14.80
2022-08-18T00:35:07.053Z,12.69
2022-08-18T00:36:07.186Z,12.39
2022-08-18T00:37:07.368Z,11.80
2022-08-18T00:38:07.342Z,12.69
2022-08-18T00:39:07.101Z,13.69
2022-08-18T00:40:07.439Z,12.89
2022-08-18T00:41:07.460Z,14.5
2022-08-18T00:42:07.024Z,12.39
2022-08-18T00:43:07.333Z,14
2022-08-18T00:44:07.260Z,13.69
2022-08-18T00:45:08.018Z,12.69
2022-08-18T00:46:07.041Z,12.60
2022-08-18T00:47:07.115Z,13.80
2022-08-18T00:48:07.237Z,15.30
2022-08-18T00:49:06.884Z,14.19
2022-08-18T00:50:07.203Z,12.69
2022-08-18T00:51:07.031Z,15.80
2022-08-18T00:52:07.295Z,16
2022-08-18T00:53:07.237Z,13.39
2022-08-18T00:54:07.279Z,14.19
2022-08-18T00:55:07.528Z,13.89
2022-08-18T00:56:07.436Z,14
2022-08-18T00:57:07.395Z,13
2022-08-18T00:58:07.506Z,13.89
2022-08-18T00:59:07.584Z,14.10
2022-08-18T01:00:07.933Z,21
2022-08-18T01:01:07.477Z,14.5
2022-08-18T01:03:07.196Z,14.19
2022-08-18T01:04:07.215Z,14.60
2022-08-18T01:05:07.563Z,14.80
2022-08-18T01:06:07.616Z,15.19
2022-08-18T01:07:07.225Z,15.5
2022-08-18T01:08:07.258Z,14.89
2022-08-18T01:09:07.794Z,16.29
2022-08-18T01:10:07.133Z,14.19
2022-08-18T01:11:07.218Z,14.89
2022-08-18T01:12:44.985Z,14.5
2022-08-18T01:13:07.511Z,16.70
2022-08-18T01:14:07.425Z,16.20
2022-08-18T01:15:08.149Z,16.10
2022-08-18T01:16:06.807Z,15.39
2022-08-18T01:17:07.449Z,14.69
2022-08-18T01:18:07.307Z,16.29
2022-08-18T01:19:07.256Z,14.10
2022-08-18T01:20:07.538Z,16.70
2022-08-18T01:21:07.322Z,14.39
2022-08-18T01:22:07.625Z,17.10
2022-08-18T01:23:07.871Z,15.19
2022-08-18T01:24:07.216Z,15.60
2022-08-18T01:25:07.315Z,15
2022-08-18T01:26:07.687Z,14.89
2022-08-18T01:27:07.186Z,14.80
2022-08-18T01:28:07.394Z,16.29
2022-08-18T01:29:07.809Z,13.69
2022-08-18T01:30:07.800Z,15.30
2022-08-18T01:31:07.075Z,15.19
2022-08-18T01:32:07.407Z,14.69
2022-08-18T01:33:07.763Z,15.80
2022-08-18T01:34:07.097Z,16.10
2022-08-18T01:35:07.239Z,14.10
2022-08-18T01:36:07.478Z,15.10
2022-08-18T01:37:07.194Z,15.5
2022-08-18T01:38:07.479Z,14.89
2022-08-18T01:39:07.676Z,15.10
2022-08-18T01:41:22.913Z,14.89
2022-08-18T01:41:26.078Z,15.19
2022-08-18T01:42:07.197Z,15
2022-08-18T01:43:07.291Z,16.20
2022-08-18T01:44:07.313Z,16
2022-08-18T01:45:07.573Z,14.89
2022-08-18T01:46:07.723Z,17.89
2022-08-18T01:47:07.619Z,15.89
2022-08-18T01:48:06.888Z,16.89
2022-08-18T01:49:07.084Z,15.60
2022-08-18T01:50:07.098Z,17.10
2022-08-18T01:51:07.491Z,14
2022-08-18T01:52:07.543Z,15.89
2022-08-18T01:53:07.425Z,15.30
2022-08-18T01:54:07.691Z,17.89
2022-08-18T01:55:07.341Z,16.89
2022-08-18T01:56:07.372Z,17.70
2022-08-18T01:57:07.717Z,16.20
2022-08-18T01:58:07.104Z,15.69
2022-08-18T01:59:07.218Z,16.29
2022-08-18T02:00:08.073Z,18
2022-08-18T02:01:07.694Z,17.20
2022-08-18T02:02:07.638Z,15.60
2022-08-18T02:03:07.588Z,17
2022-08-18T02:04:31.188Z,16.10
2022-08-18T02:05:07.624Z,15.80
2022-08-18T02:06:07.106Z,14.60
2022-08-18T02:07:07.819Z,16.5
2022-08-18T02:09:07.389Z,18
2022-08-18T02:10:11.874Z,15.30
2022-08-18T02:11:07.597Z,16.60
2022-08-18T02:12:07.518Z,16.29
2022-08-18T02:13:07.695Z,17.79
2022-08-18T02:14:07.579Z,16.39
2022-08-18T02:15:07.745Z,16.29
2022-08-18T02:16:07.212Z,15.10
2022-08-18T02:18:07.441Z,15.80
2022-08-18T02:20:07.565Z,15.60
2022-08-18T02:21:10.163Z,14.89
2022-08-18T02:22:07.542Z,15
2022-08-18T02:23:07.723Z,14.39
2022-08-18T02:24:07.188Z,15.10
2022-08-18T02:25:07.686Z,15.69
2022-08-18T02:26:06.907Z,14.39
2022-08-18T02:27:06.984Z,14.60
2022-08-18T02:28:07.220Z,14.10
2022-08-18T02:29:07.365Z,15.80
2022-08-18T02:30:07.416Z,15.89
2022-08-18T02:32:07.411Z,14.60
2022-08-18T02:33:07.532Z,14.80
2022-08-18T02:34:07.483Z,16.10
2022-08-18T02:35:09.499Z,16.5
2022-08-18T02:36:07.245Z,16.29
2022-08-18T02:37:09.910Z,16.70
2022-08-18T02:38:07.524Z,16.5
2022-08-18T02:39:07.310Z,14.39
2022-08-18T02:40:07.462Z,13.89
2022-08-18T02:41:07.215Z,16.10
2022-08-18T02:42:07.302Z,14.60
2022-08-18T02:43:07.382Z,15
2022-08-18T02:44:07.270Z,15.69
2022-08-18T02:45:07.746Z,15.19
2022-08-18T02:46:07.262Z,14.60
2022-08-18T02:47:07.300Z,15.30
2022-08-18T02:48:07.401Z,14.80
2022-08-18T02:49:07.471Z,17
2022-08-18T02:50:07.795Z,15.30
2022-08-18T02:51:07.499Z,15
2022-08-18T02:52:07.423Z,14.69
2022-08-18T02:53:07.468Z,14
2022-08-18T02:54:07.718Z,16.60
2022-08-18T02:57:07.223Z,15.89
2022-08-18T02:58:07.239Z,16.79
2022-08-18T02:59:07.051Z,16.10
2022-08-18T03:00:07.758Z,14.19
2022-08-18T03:01:07.018Z,14.39
2022-08-18T03:03:07.162Z,13.89
2022-08-18T03:04:07.252Z,16
2022-08-18T03:05:07.283Z,16.5
2022-08-18T03:06:06.893Z,15.5
2022-08-18T03:07:07.175Z,14
2022-08-18T03:08:07.243Z,15.80
2022-08-18T03:09:07.373Z,16.60
2022-08-18T03:10:32.679Z,16.5
2022-08-18T03:11:07.463Z,17.29
2022-08-18T03:12:07.338Z,19.39
2022-08-18T03:13:07.230Z,17.60
2022-08-18T03:14:11.245Z,17.10
2022-08-18T03:15:07.189Z,17.70
2022-08-18T03:16:07.198Z,16.29
2022-08-18T03:17:07.516Z,17.60
2022-08-18T03:18:07.492Z,19.5
2022-08-18T03:19:07.305Z,16.39
2022-08-18T03:20:07.163Z,16.70
2022-08-18T03:21:07.658Z,16.60
2022-08-18T03:22:18.748Z,19.29
2022-08-18T03:23:09.752Z,19.79
2022-08-18T03:24:09.287Z,18
2022-08-18T03:25:07.466Z,19.60
2022-08-18T03:27:07.390Z,21.29
2022-08-18T03:28:07.643Z,21.60
2022-08-18T03:29:06.905Z,20.39
2022-08-18T03:30:11.301Z,18.5
2022-08-18T03:31:06.987Z,21.60
2022-08-18T03:32:07.183Z,19.29
2022-08-18T03:33:07.216Z,20.20
2022-08-18T03:34:07.591Z,19
2022-08-18T03:35:07.849Z,19.29
2022-08-18T03:36:07.317Z,22
2022-08-18T03:37:07.455Z,20.10
2022-08-18T03:38:07.467Z,20
2022-08-18T03:39:07.505Z,19.70
2022-08-18T03:40:07.780Z,18.39
2022-08-18T03:41:07.238Z,22.10
2022-08-18T03:42:07.242Z,21.29
2022-08-18T03:43:49.459Z,19
2022-08-18T03:44:06.765Z,18.89
2022-08-18T03:45:13.273Z,20.70
2022-08-18T03:46:06.871Z,18.89
2022-08-18T03:47:06.894Z,20.70
2022-08-18T03:48:06.737Z,18.20
2022-08-18T03:49:07.554Z,20.60
2022-08-18T03:50:07.642Z,19.60
2022-08-18T03:51:06.926Z,18.89
2022-08-18T03:52:06.982Z,20.70
2022-08-18T03:53:07.176Z,19.70
2022-08-18T03:54:07.188Z,19.89
2022-08-18T03:55:07.188Z,19.20
2022-08-18T03:56:07.283Z,19.39
2022-08-18T03:57:07.714Z,18.10
2022-08-18T03:58:07.809Z,20
2022-08-18T03:59:06.905Z,19.89
2022-08-18T04:00:07.848Z,20.10
2022-08-18T04:01:07.529Z,21.89
2022-08-18T04:02:07.662Z,24.29
2022-08-18T04:03:07.168Z,22.20
2022-08-18T04:04:07.409Z,21.89
2022-08-18T04:05:07.182Z,24.20
2022-08-18T04:06:12.139Z,22.60
2022-08-18T04:07:07.298Z,22.39
2022-08-18T04:08:07.604Z,21
2022-08-18T04:09:07.784Z,21.20
2022-08-18T04:10:07.182Z,22.60
2022-08-18T04:11:07.981Z,20.70
2022-08-18T04:12:07.430Z,22.5
2022-08-18T04:13:07.482Z,21.5
2022-08-18T04:14:07.484Z,21.20
2022-08-18T04:15:07.358Z,22.29
2022-08-18T04:16:07.588Z,21.70
2022-08-18T04:17:07.393Z,21.79
2022-08-18T04:18:08.129Z,21.39
2022-08-18T04:19:07.030Z,22.70
2022-08-18T04:20:07.020Z,23
2022-08-18T04:21:07.326Z,25.60
2022-08-18T04:22:07.453Z,24.20
2022-08-18T04:23:07.284Z,22.5
2022-08-18T04:24:07.532Z,23.29
2022-08-18T04:25:07.860Z,26.79
2022-08-18T04:26:07.051Z,23.60
2022-08-18T04:27:07.036Z,26.20
2022-08-18T04:28:07.176Z,25.29
2022-08-18T04:29:07.349Z,24.89
2022-08-18T04:30:07.750Z,25.39
2022-08-18T04:31:09.217Z,25.79
2022-08-18T04:32:07.741Z,26.5
2022-08-18T04:33:07.129Z,26
2022-08-18T04:34:07.465Z,22.20
2022-08-18T04:35:12.302Z,24
2022-08-18T04:36:07.807Z,24.29
2022-08-18T04:37:07.101Z,25.5
2022-08-18T04:38:07.171Z,24.79
2022-08-18T04:39:07.397Z,24
2022-08-18T04:40:07.882Z,24.60
2022-08-18T04:41:06.786Z,23.79
2022-08-18T04:42:07.000Z,23.5
2022-08-18T04:43:07.064Z,23.10
2022-08-18T04:44:07.395Z,23.60
2022-08-18T04:45:07.613Z,23.89
2022-08-18T04:46:07.682Z,26.10
2022-08-18T04:47:06.963Z,24.79
2022-08-18T04:48:07.255Z,22.60
2022-08-18T04:49:07.274Z,23.89
2022-08-18T04:50:07.335Z,22.70
2022-08-18T04:51:07.249Z,23.5
2022-08-18T04:52:37.547Z,23.70
2022-08-18T04:53:07.307Z,24.10
2022-08-18T04:54:07.366Z,23.60
2022-08-18T04:55:07.604Z,22.39
2022-08-18T04:56:07.819Z,20.5
2022-08-18T04:57:06.893Z,24.29
2022-08-18T04:58:07.108Z,23.5
2022-08-18T04:59:07.376Z,23.79
2022-08-18T05:00:08.194Z,22.70
2022-08-18T05:01:07.511Z,23.70
2022-08-18T05:02:10.260Z,23.79
2022-08-18T05:03:07.213Z,24.20
2022-08-18T05:04:07.158Z,22
2022-08-18T05:05:07.283Z,23.29
2022-08-18T05:06:07.508Z,24.20
2022-08-18T05:07:07.815Z,24.10
2022-08-18T05:08:06.969Z,23.29
2022-08-18T05:09:07.139Z,22
2022-08-18T05:10:07.500Z,23.79
2022-08-18T05:11:07.656Z,23.29
2022-08-18T05:12:07.002Z,24.20
2022-08-18T05:13:07.442Z,21.60
2022-08-18T05:14:07.453Z,21.5
2022-08-18T05:16:11.811Z,21.79
2022-08-18T05:17:07.595Z,21.60
2022-08-18T05:18:07.666Z,19.89
2022-08-18T05:19:08.005Z,21.60
2022-08-18T05:20:07.418Z,21.5
2022-08-18T05:21:09.148Z,20.10
2022-08-18T05:22:07.598Z,22.29
2022-08-18T05:23:07.405Z,22.10
2022-08-18T05:24:07.533Z,20.60
2022-08-18T05:25:07.772Z,23.20
2022-08-18T05:26:07.542Z,22
2022-08-18T05:27:07.807Z,22.20
2022-08-18T05:28:07.049Z,21
2022-08-18T05:29:18.164Z,27.20
2022-08-18T05:30:08.343Z,22.20
2022-08-18T05:31:13.122Z,22.10
2022-08-18T05:32:07.387Z,22.39
2022-08-18T05:33:07.788Z,22.70
2022-08-18T05:34:06.959Z,21.60
2022-08-18T05:35:07.181Z,22.20
2022-08-18T05:36:07.591Z,21.60
2022-08-18T05:37:08.259Z,22.39
2022-08-18T05:38:07.606Z,21.89
2022-08-18T05:39:08.607Z,23.10
2022-08-18T05:40:11.425Z,22.20
2022-08-18T05:41:07.287Z,21.60
2022-08-18T05:42:07.264Z,21.10
2022-08-18T05:43:07.325Z,21.60
2022-08-18T05:44:07.360Z,20.79
2022-08-18T05:45:07.672Z,22.5
2022-08-18T05:46:07.267Z,22
2022-08-18T05:47:07.530Z,21.5
2022-08-18T05:48:07.503Z,22.60
2022-08-18T05:49:07.559Z,21.5
2022-08-18T05:50:07.765Z,21.20
2022-08-18T05:51:07.029Z,20.60
2022-08-18T05:52:07.215Z,23.10
2022-08-18T05:53:12.534Z,22.39
2022-08-18T05:54:07.441Z,21.39
2022-08-18T05:55:07.841Z,21.20
2022-08-18T05:56:07.192Z,23.60
2022-08-18T05:57:07.683Z,22.79
2022-08-18T05:58:07.361Z,22.60
2022-08-18T05:59:07.378Z,21.70
2022-08-18T06:00:08.649Z,22.29
2022-08-18T06:01:07.769Z,22.39
2022-08-18T06:02:07.429Z,23
2022-08-18T06:03:07.328Z,22.70
2022-08-18T06:04:07.586Z,21.29
2022-08-18T06:05:07.365Z,21.5
2022-08-18T06:06:07.593Z,23
2022-08-18T06:07:07.300Z,21.60
2022-08-18T06:08:07.618Z,22.70
2022-08-18T06:09:07.700Z,22.29
2022-08-18T06:10:07.186Z,22.5
2022-08-18T06:11:07.607Z,22
2022-08-18T06:12:07.012Z,20.39
2022-08-18T06:13:07.238Z,21.89
2022-08-18T06:14:07.482Z,22.29
2022-08-18T06:15:08.061Z,20.89
2022-08-18T06:16:07.522Z,21.79
2022-08-18T06:17:07.357Z,22.29
2022-08-18T06:18:07.408Z,26
2022-08-18T06:19:07.651Z,24
2022-08-18T06:20:07.962Z,26.10
2022-08-18T06:21:07.122Z,25.70
2022-08-18T06:22:07.251Z,25.29
2022-08-18T06:23:07.397Z,27.29
2022-08-18T06:24:07.459Z,24.60
2022-08-18T06:25:07.569Z,27.29
2022-08-18T06:26:07.453Z,28.5
2022-08-18T06:27:07.650Z,31.79
2022-08-18T06:28:07.697Z,31.29
2022-08-18T06:29:07.234Z,34.40
2022-08-18T06:30:07.847Z,29.89
2022-08-18T06:31:07.191Z,32.79
2022-08-18T06:32:07.493Z,36.5
2022-08-18T06:33:07.558Z,37.90
2022-08-18T06:34:07.607Z,38
2022-08-18T06:35:07.087Z,38.59
2022-08-18T06:36:07.225Z,41.59
2022-08-18T06:37:07.283Z,43.59
2022-08-18T06:38:07.511Z,46.5
2022-08-18T06:39:08.000Z,44
2022-08-18T06:40:07.497Z,48.5
2022-08-18T06:41:07.817Z,47.79
2022-08-18T06:42:07.506Z,49.40
2022-08-18T06:43:07.688Z,53.5
2022-08-18T06:44:07.200Z,57.59
2022-08-18T06:45:07.752Z,56.40
2022-08-18T06:46:07.402Z,57
2022-08-18T06:47:07.563Z,59.90
2022-08-18T06:48:15.636Z,62.90
2022-08-18T06:49:07.408Z,66.19
2022-08-18T06:50:07.913Z,66.09
2022-08-18T06:51:07.308Z,66.90
2022-08-18T06:52:07.388Z,59.90
2022-08-18T06:53:07.385Z,58.29
2022-08-18T06:54:07.491Z,63.29
2022-08-18T06:55:07.650Z,56
2022-08-18T06:56:25.804Z,62
2022-08-18T06:57:07.009Z,63
2022-08-18T06:58:07.135Z,58.79
2022-08-18T06:59:07.140Z,57.20
2022-08-18T07:00:08.141Z,58.09
2022-08-18T07:01:07.787Z,63.5
2022-08-18T07:02:07.589Z,60.79
2022-08-18T07:03:07.367Z,59.59
2022-08-18T07:04:07.638Z,61.09
2022-08-18T07:05:07.237Z,67.19
2022-08-18T07:06:07.338Z,61
2022-08-18T07:07:07.364Z,66
2022-08-18T07:08:07.676Z,65.90
2022-08-18T07:09:07.141Z,67.09
2022-08-18T07:10:07.291Z,66.59
2022-08-18T07:11:07.494Z,64.80
2022-08-18T07:12:07.790Z,62.59
2022-08-18T07:13:07.190Z,63.79
2022-08-18T07:14:16.209Z,59.20
2022-08-18T07:15:07.778Z,57.09
2022-08-18T07:16:07.263Z,55.5
2022-08-18T07:17:07.452Z,58.5
2022-08-18T07:18:07.661Z,52.79
2022-08-18T07:19:07.657Z,55
2022-08-18T07:20:26.191Z,55.09
2022-08-18T07:21:07.578Z,54
2022-08-18T07:22:07.725Z,55
2022-08-18T07:23:07.896Z,59.70
2022-08-18T07:24:23.158Z,56.90
2022-08-18T07:25:07.455Z,55.59
2022-08-18T07:26:07.704Z,59.29
2022-08-18T07:27:07.329Z,58.09
2022-08-18T07:28:07.746Z,60.79
2022-08-18T07:29:07.185Z,60.90
2022-08-18T07:30:07.795Z,65.30
2022-08-18T07:31:17.070Z,58.29
2022-08-18T07:32:09.468Z,63.70
2022-08-18T07:33:07.663Z,61.40
2022-08-18T07:34:07.763Z,54.70
2022-08-18T07:35:07.947Z,64.90
2022-08-18T07:36:07.038Z,58.09
2022-08-18T07:37:07.421Z,58.20
2022-08-18T07:38:24.856Z,58.79
2022-08-18T07:39:07.362Z,51.29
2022-08-18T07:40:07.857Z,48
2022-08-18T07:41:07.427Z,51.59
2022-08-18T07:42:07.544Z,48.09
2022-08-18T07:43:07.916Z,51
2022-08-18T07:44:12.950Z,48.79
2022-08-18T07:45:07.396Z,50.40
2022-08-18T07:46:07.837Z,54.79
2022-08-18T07:47:07.282Z,52.79
2022-08-18T07:48:27.512Z,51.90
2022-08-18T07:49:07.714Z,56.29
2022-08-18T07:50:23.372Z,59
2022-08-18T07:51:08.784Z,55.70
2022-08-18T07:52:14.601Z,58.40
2022-08-18T07:53:07.434Z,53.79
2022-08-18T07:54:07.126Z,53.09
2022-08-18T07:55:07.469Z,55.40
2022-08-18T07:56:07.519Z,51.59
2022-08-18T07:57:07.794Z,48.20
2022-08-18T07:58:07.318Z,46.70
2022-08-18T07:59:07.493Z,52.59
2022-08-18T08:00:10.512Z,49.59
2022-08-18T08:01:07.184Z,49.40
2022-08-18T08:02:07.523Z,48.90
2022-08-18T08:03:07.153Z,55
2022-08-18T08:04:07.362Z,52.70
2022-08-18T08:05:07.407Z,49
2022-08-18T08:06:08.017Z,52
2022-08-18T08:07:24.003Z,48
2022-08-18T08:08:07.005Z,45.59
2022-08-18T08:09:07.544Z,45.79
2022-08-18T08:10:07.720Z,44.90
2022-08-18T08:11:07.161Z,47
2022-08-18T08:12:07.201Z,42.90
2022-08-18T08:13:09.656Z,45.09
2022-08-18T08:14:07.555Z,43.79
2022-08-18T08:15:08.323Z,41.79
2022-08-18T08:16:07.385Z,46.5
2022-08-18T08:17:07.974Z,45
2022-08-18T08:18:07.232Z,41.20
2022-08-18T08:19:12.385Z,38.90
2022-08-18T08:20:07.285Z,42.20
2022-08-18T08:21:07.666Z,41.29
2022-08-18T08:22:07.123Z,42.59
2022-08-18T08:23:07.689Z,46.79
2022-08-18T08:24:07.342Z,44.90
2022-08-18T08:25:22.454Z,45.20
2022-08-18T08:26:08.524Z,41.40
2022-08-18T08:27:07.441Z,48.29
2022-08-18T08:28:07.603Z,45
2022-08-18T08:29:08.031Z,47.59
2022-08-18T08:30:08.227Z,45.59
2022-08-18T08:31:33.072Z,45.79
2022-08-18T08:32:07.757Z,45
2022-08-18T08:33:07.157Z,46.70
2022-08-18T08:34:07.414Z,50.29
2022-08-18T08:35:10.423Z,50.20
2022-08-18T08:36:07.401Z,52.79
2022-08-18T08:37:07.503Z,47.09
2022-08-18T08:38:23.252Z,55.20
2022-08-18T08:39:07.157Z,50.20
2022-08-18T08:40:07.986Z,51
2022-08-18T08:41:07.585Z,50.79
2022-08-18T08:42:31.844Z,54.09
2022-08-18T08:43:07.556Z,53.90
2022-08-18T08:44:07.170Z,53.5
2022-08-18T08:45:08.156Z,49.20
2022-08-18T08:46:07.410Z,51.79
2022-08-18T08:47:07.386Z,47.20
2022-08-18T08:48:09.555Z,47.09
2022-08-18T08:49:07.390Z,50.40
2022-08-18T08:50:07.673Z,51.90
2022-08-18T08:51:07.093Z,53
2022-08-18T08:52:07.331Z,50.59
2022-08-18T08:53:07.558Z,54.20
2022-08-18T08:54:07.755Z,47.70
2022-08-18T08:55:07.153Z,50.79
2022-08-18T08:56:07.090Z,48.59
2022-08-18T08:57:09.847Z,49.20
2022-08-18T08:58:07.297Z,49.59
2022-08-18T08:59:07.652Z,47.5
2022-08-18T09:00:08.513Z,47.70
2022-08-18T09:01:07.735Z,50.5
2022-08-18T09:02:07.311Z,48.5
2022-08-18T09:04:07.415Z,49.79
2022-08-18T09:05:09.381Z,48.29
2022-08-18T09:06:07.348Z,50
2022-08-18T09:07:07.626Z,53.20
2022-08-18T09:08:07.003Z,49.09
2022-08-18T09:09:07.555Z,53
2022-08-18T09:10:07.608Z,47.40
2022-08-18T09:11:07.795Z,53.70
2022-08-18T09:12:07.127Z,52.40
2022-08-18T09:13:07.298Z,54.29
2022-08-18T09:14:07.474Z,53.59
2022-08-18T09:15:08.104Z,47.90
2022-08-18T09:16:12.196Z,44
2022-08-18T09:17:07.555Z,43
2022-08-18T09:18:07.349Z,44.20
2022-08-18T09:19:07.486Z,41.90
2022-08-18T09:20:07.838Z,45.59
2022-08-18T09:21:07.285Z,45.29
2022-08-18T09:22:07.366Z,43.40
2022-08-18T09:23:07.594Z,40.29
2022-08-18T09:24:07.014Z,42.59
2022-08-18T09:25:07.473Z,40.59
2022-08-18T09:26:07.872Z,41.5
2022-08-18T09:27:21.472Z,47.29
2022-08-18T09:28:10.824Z,43.79
2022-08-18T09:29:07.772Z,46.5
2022-08-18T09:30:07.331Z,45.40
2022-08-18T09:31:09.098Z,39.79
2022-08-18T09:32:11.336Z,41.40
2022-08-18T09:33:18.552Z,39.79
2022-08-18T09:34:07.450Z,44.90
2022-08-18T09:35:07.433Z,39.59
2022-08-18T09:36:10.157Z,41.40
2022-08-18T09:37:07.745Z,41.70
2022-08-18T09:38:07.217Z,34.40
2022-08-18T09:39:08.020Z,42.40
2022-08-18T09:40:10.852Z,42.70
2022-08-18T09:41:07.310Z,40.90
2022-08-18T09:42:07.157Z,37.70
2022-08-18T09:43:07.601Z,39
2022-08-18T09:44:07.637Z,37.09
2022-08-18T09:45:07.438Z,36.90
2022-08-18T09:46:07.487Z,40.90
2022-08-18T09:47:07.437Z,36.20
2022-08-18T09:48:10.106Z,36
2022-08-18T09:49:08.424Z,37.79
2022-08-18T09:50:09.170Z,37.20
2022-08-18T09:51:07.343Z,34.79
2022-08-18T09:52:07.672Z,36.70
2022-08-18T09:53:07.291Z,35
2022-08-18T09:54:07.532Z,35.5
2022-08-18T09:55:07.804Z,35.09
2022-08-18T09:56:07.199Z,35.29
2022-08-18T09:57:07.491Z,34.09
2022-08-18T09:58:07.685Z,33.90
2022-08-18T09:59:09.837Z,34.5
2022-08-18T10:00:08.301Z,31.20
2022-08-18T10:01:07.090Z,37.59
2022-08-18T10:02:14.216Z,33.29
2022-08-18T10:03:07.526Z,30.60
2022-08-18T10:04:06.967Z,33.40
2022-08-18T10:05:07.665Z,31.5
2022-08-18T10:07:07.342Z,29.5
2022-08-18T10:08:07.674Z,28.70
2022-08-18T10:10:18.478Z,31.10
2022-08-18T10:11:09.659Z,27.20
2022-08-18T10:12:08.160Z,27.89
2022-08-18T10:13:07.219Z,26.39
2022-08-18T10:14:07.803Z,29
2022-08-18T10:15:07.485Z,26.39
2022-08-18T10:16:10.896Z,25.70
2022-08-18T10:17:23.580Z,25.20
2022-08-18T10:18:07.712Z,28.20
2022-08-18T10:19:07.681Z,26.60
2022-08-18T10:20:07.222Z,25.89
2022-08-18T10:21:07.777Z,25.10
2022-08-18T10:22:07.439Z,26.70
2022-08-18T10:23:07.912Z,25.79
2022-08-18T10:25:22.233Z,24.60
2022-08-18T10:26:11.427Z,23.79
2022-08-18T10:28:07.335Z,22.5
2022-08-18T10:29:07.246Z,23.79
2022-08-18T10:30:07.879Z,25
2022-08-18T10:31:10.307Z,22.29
2022-08-18T10:32:07.222Z,23.29
2022-08-18T10:33:18.009Z,21.5
2022-08-18T10:35:07.766Z,21.89
2022-08-18T10:37:07.272Z,20.60
2022-08-18T10:38:07.325Z,21.89
2022-08-18T10:39:07.640Z,22.79
2022-08-18T10:40:07.344Z,20.89
2022-08-18T10:41:15.338Z,20.70
2022-08-18T10:42:07.231Z,20.20
2022-08-18T10:43:26.824Z,21.29
2022-08-18T10:44:21.105Z,20.20
2022-08-18T10:45:07.542Z,21.70
2022-08-18T10:47:12.157Z,21.60
2022-08-18T10:48:11.953Z,22.39
2022-08-18T10:49:08.861Z,20.10
2022-08-18T10:50:07.638Z,18.29
2022-08-18T10:51:07.498Z,21.89
2022-08-18T10:52:07.672Z,21.10
2022-08-18T10:54:07.718Z,20.79
2022-08-18T10:56:07.648Z,21
2022-08-18T10:57:07.139Z,19.79
2022-08-18T10:58:07.332Z,18.89
2022-08-18T10:59:07.274Z,19.5
2022-08-18T11:00:08.423Z,21.60
2022-08-18T11:01:07.223Z,20.29
2022-08-18T11:02:07.677Z,18.70
2022-08-18T11:03:42.618Z,21.5
2022-08-18T11:04:14.060Z,19.79
2022-08-18T11:05:07.958Z,21.20
2022-08-18T11:06:14.501Z,22.29
2022-08-18T11:07:08.374Z,21.89
2022-08-18T11:08:15.734Z,19.60
2022-08-18T11:09:07.769Z,20.70
2022-08-18T11:10:29.460Z,20.5
2022-08-18T11:11:33.031Z,20.20
2022-08-18T11:12:07.569Z,21
2022-08-18T11:13:08.850Z,22.70
2022-08-18T11:14:07.811Z,20.29
2022-08-18T11:17:07.566Z,22.20
2022-08-18T11:18:10.337Z,19.39
2022-08-18T11:19:07.583Z,19.89
2022-08-18T11:20:07.509Z,21.89
2022-08-18T11:21:08.231Z,22.79
2022-08-18T11:22:07.353Z,24.20
2022-08-18T11:23:07.823Z,23.29
2022-08-18T11:24:07.710Z,25.60
2022-08-18T11:25:07.935Z,26.39
2022-08-18T11:26:07.260Z,25.10
2022-08-18T11:27:15.202Z,24.79
2022-08-18T11:28:07.786Z,24.60
2022-08-18T11:29:07.489Z,26.5
2022-08-18T11:30:08.059Z,24.20
2022-08-18T11:31:07.772Z,24.60
2022-08-18T11:32:09.277Z,25.60
2022-08-18T11:33:07.132Z,25.10
2022-08-18T11:34:07.304Z,28.70
2022-08-18T11:35:07.612Z,26.39
2022-08-18T11:36:07.430Z,25.89
2022-08-18T11:37:08.907Z,26.5
2022-08-18T11:38:07.694Z,26.60
2022-08-18T11:39:07.371Z,26.20
2022-08-18T11:40:09.610Z,27.5
2022-08-18T11:41:09.488Z,30.39
2022-08-18T11:42:07.451Z,28.10
2022-08-18T11:43:07.924Z,27.5
2022-08-18T11:44:08.037Z,28.20
2022-08-18T11:45:07.876Z,28.60
2022-08-18T11:46:07.650Z,26.60
2022-08-18T11:47:07.998Z,29.29
2022-08-18T11:48:22.018Z,27.79
2022-08-18T11:49:07.559Z,27.89
2022-08-18T11:50:07.466Z,32.70
2022-08-18T11:51:07.515Z,30.29
2022-08-18T11:52:07.297Z,29.5
2022-08-18T11:53:07.740Z,29
2022-08-18T11:54:07.405Z,29.20
2022-08-18T11:55:16.338Z,29
2022-08-18T11:57:10.098Z,28.89
2022-08-18T11:58:12.688Z,30.20
2022-08-18T11:59:07.207Z,27.29
2022-08-18T12:00:22.661Z,29.29
2022-08-18T12:01:08.168Z,30.20
2022-08-18T12:02:07.698Z,27.89
2022-08-18T12:03:07.391Z,31.89
2022-08-18T12:04:26.330Z,32.59
2022-08-18T12:06:07.749Z,32.5
2022-08-18T12:07:07.805Z,31.60
2022-08-18T12:09:07.615Z,32.70
2022-08-18T12:10:17.299Z,29.5
2022-08-18T12:11:26.857Z,32.40
2022-08-18T12:12:07.697Z,31.89
2022-08-18T12:13:07.195Z,32.40
2022-08-18T12:14:31.435Z,33.20
2022-08-18T12:15:17.218Z,31.20
2022-08-18T12:16:07.602Z,29.89
2022-08-18T12:17:07.195Z,31.5
2022-08-18T12:18:07.225Z,31.10
2022-08-18T12:19:07.160Z,33
2022-08-18T12:20:07.513Z,30.20
2022-08-18T12:21:07.298Z,30.10
2022-08-18T12:22:11.780Z,33.09
2022-08-18T12:25:12.172Z,28.89
2022-08-18T12:26:07.102Z,29.60
2022-08-18T12:27:20.524Z,30.20
2022-08-18T12:28:10.868Z,28.39
2022-08-18T12:29:08.684Z,31.60
2022-08-18T12:30:07.566Z,28.20
2022-08-18T12:31:17.052Z,29.70
2022-08-18T12:32:08.499Z,29.5
2022-08-18T12:33:12.421Z,31.39
2022-08-18T12:34:07.350Z,30.29
2022-08-18T12:35:09.371Z,30.79
2022-08-18T12:36:07.404Z,27.79
2022-08-18T12:37:34.020Z,32
2022-08-18T12:38:13.889Z,30
2022-08-18T12:39:07.349Z,26.5
2022-08-18T12:40:08.621Z,27.70
2022-08-18T12:41:07.320Z,28
2022-08-18T12:42:07.392Z,28.60
2022-08-18T12:43:07.747Z,29.29
2022-08-18T12:44:13.165Z,30.10
2022-08-18T12:45:07.580Z,29.89
2022-08-18T12:46:07.398Z,26.39
2022-08-18T12:47:07.452Z,26.5
2022-08-18T12:48:07.235Z,26.20
2022-08-18T12:49:07.482Z,26
2022-08-18T12:50:07.382Z,30.10
2022-08-18T12:51:07.976Z,26.39
2022-08-18T12:52:07.598Z,31.39
2022-08-18T12:53:07.501Z,29.5
2022-08-18T12:54:07.468Z,28.70
2022-08-18T12:55:07.190Z,26.79
2022-08-18T12:56:08.561Z,28.70
2022-08-18T12:57:07.048Z,30.89
2022-08-18T12:58:07.270Z,31.39
2022-08-18T12:59:07.587Z,33
2022-08-18T13:00:08.113Z,30.60
2022-08-18T13:01:07.684Z,29.70
2022-08-18T13:02:07.440Z,30.10
2022-08-18T13:03:07.469Z,31.79
2022-08-18T13:04:11.416Z,25.89
2022-08-18T13:06:07.586Z,27.20
2022-08-18T13:07:07.391Z,26
2022-08-18T13:08:12.437Z,24.20
2022-08-18T13:09:16.223Z,28.5
2022-08-18T13:10:07.655Z,27.10
2022-08-18T13:11:14.632Z,36.79
2022-08-18T13:12:12.670Z,28.10
2022-08-18T13:13:07.408Z,24.5
2022-08-18T13:14:08.920Z,24.39
2022-08-18T13:15:07.889Z,27
2022-08-18T13:16:07.109Z,27.20
2022-08-18T13:17:13.147Z,26
2022-08-18T13:18:07.426Z,28
2022-08-18T13:19:07.603Z,27.70
2022-08-18T13:20:07.713Z,27.60
2022-08-18T13:21:07.591Z,28.20
2022-08-18T13:22:07.417Z,29.20
2022-08-18T13:23:08.462Z,27.70
2022-08-18T13:24:07.435Z,27.89
2022-08-18T13:25:07.605Z,30.79
2022-08-18T13:26:08.760Z,28.20
2022-08-18T13:27:13.633Z,26.39
2022-08-18T13:28:07.631Z,25.79
2022-08-18T13:29:10.150Z,27.5
2022-08-18T13:30:16.805Z,27.79
2022-08-18T13:31:07.852Z,29.20
2022-08-18T13:32:07.426Z,27.5
2022-08-18T13:33:34.504Z,28.79